METAR Data
IDs: Format: Raw Decoded Include TAF

Data at: 1341 UTC 26 Feb 2021

LIMJ 261320Z 21003KT 7000 NSC 11/09 Q1028